createdAt,value
2023-04-27T11:24:26.589Z,500.00
2023-04-27T11:25:26.472Z,500.00
2023-04-27T11:26:26.566Z,500.00
2023-04-27T11:27:26.483Z,500.00
2023-04-27T11:28:26.262Z,500.00
2023-04-27T11:29:26.244Z,400.00
2023-04-27T11:30:26.192Z,400.00
2023-04-27T11:31:26.107Z,400.00
2023-04-27T11:32:26.008Z,400.00
2023-04-27T11:33:25.808Z,400.00
2023-04-27T11:34:25.708Z,400.00
2023-04-27T11:35:25.623Z,400.00
2023-04-27T11:36:25.523Z,400.00
2023-04-27T11:37:25.503Z,400.00
2023-04-27T11:38:25.324Z,400.00
2023-04-27T11:39:25.264Z,400.00
2023-04-27T11:40:25.106Z,400.00
2023-04-27T11:41:24.983Z,400.00
2023-04-27T11:42:24.914Z,400.00
2023-04-27T11:43:24.747Z,400.00
2023-04-27T11:44:24.642Z,400.00
2023-04-27T11:45:24.521Z,400.00
2023-04-27T11:46:24.437Z,400.00
2023-04-27T11:47:24.350Z,400.00
2023-04-27T11:48:24.164Z,400.00
2023-04-27T11:49:24.050Z,400.00
2023-04-27T11:50:23.948Z,400.00
2023-04-27T11:51:23.811Z,400.00
2023-04-27T11:52:23.711Z,400.00
2023-04-27T11:53:23.580Z,400.00
2023-04-27T11:54:23.519Z,400.00
2023-04-27T11:55:23.428Z,400.00
2023-04-27T11:56:23.357Z,400.00
2023-04-27T11:57:23.262Z,400.00
2023-04-27T11:58:23.189Z,400.00
2023-04-27T11:59:23.089Z,400.00
2023-04-27T12:00:23.010Z,400.00
2023-04-27T12:01:34.823Z,400.00
2023-04-27T12:02:23.970Z,400.00
2023-04-27T12:03:22.835Z,400.00
2023-04-27T12:04:22.816Z,400.00
2023-04-27T12:05:22.614Z,400.00
2023-04-27T12:07:23.256Z,400.00
2023-04-27T12:08:22.141Z,400.00
2023-04-27T12:09:22.023Z,400.00
2023-04-27T12:10:21.914Z,400.00
2023-04-27T12:11:21.794Z,400.00
2023-04-27T12:12:21.692Z,400.00
2023-04-27T12:13:21.570Z,400.00
2023-04-27T12:14:21.475Z,400.00
2023-04-27T12:15:21.336Z,400.00
2023-04-27T12:16:21.304Z,400.00
2023-04-27T12:17:21.207Z,400.00
2023-04-27T12:18:21.020Z,400.00
2023-04-27T12:19:20.895Z,400.00
2023-04-27T12:20:20.782Z,400.00
2023-04-27T12:21:20.679Z,400.00
2023-04-27T12:22:20.600Z,400.00
2023-04-27T12:23:20.456Z,400.00
2023-04-27T12:24:20.360Z,400.00
2023-04-27T12:25:20.239Z,400.00
2023-04-27T12:26:20.141Z,400.00
2023-04-27T12:27:20.036Z,400.00
2023-04-27T12:28:19.930Z,400.00
2023-04-27T12:29:19.831Z,400.00
2023-04-27T12:30:19.715Z,400.00
2023-04-27T12:31:19.609Z,400.00
2023-04-27T12:32:19.530Z,400.00
2023-04-27T12:33:19.428Z,400.00
2023-04-27T12:34:19.312Z,400.00
2023-04-27T12:35:19.191Z,400.00
2023-04-27T12:36:19.121Z,400.00
2023-04-27T12:37:19.034Z,400.00
2023-04-27T12:38:18.996Z,400.00
2023-04-27T12:39:18.950Z,400.00
2023-04-27T12:40:18.842Z,400.00
2023-04-27T12:41:18.733Z,400.00
2023-04-27T12:42:18.634Z,400.00
2023-04-27T12:43:18.512Z,400.00
2023-04-27T12:44:18.401Z,400.00
2023-04-27T12:45:18.297Z,400.00
2023-04-27T12:46:18.256Z,400.00
2023-04-27T12:47:32.730Z,400.00
2023-04-27T12:48:18.968Z,400.00
2023-04-27T12:49:17.865Z,400.00
2023-04-27T12:50:17.738Z,400.00
2023-04-27T12:51:17.624Z,400.00
2023-04-27T12:52:17.570Z,400.00
2023-04-27T12:53:17.409Z,400.00
2023-04-27T12:54:17.500Z,400.00
2023-04-27T12:55:31.428Z,400.00
2023-04-27T12:56:18.095Z,400.00
2023-04-27T12:57:16.959Z,402.00
2023-04-27T12:58:16.868Z,405.00
2023-04-27T12:59:16.729Z,413.00
2023-04-27T13:00:16.613Z,423.00
2023-04-27T13:01:16.557Z,477.00
2023-04-27T13:02:16.415Z,507.00
2023-04-27T13:03:16.372Z,512.00
2023-04-27T13:04:16.502Z,521.00
2023-04-27T13:05:16.030Z,515.00
2023-04-27T13:06:15.942Z,524.00
2023-04-27T13:07:15.906Z,521.00
2023-04-27T13:08:15.804Z,530.00
2023-04-27T13:09:15.766Z,527.00
2023-04-27T13:10:15.700Z,529.00
2023-04-27T13:11:15.653Z,535.00
2023-04-27T13:12:15.573Z,535.00
2023-04-27T13:13:15.527Z,538.00
2023-04-27T13:14:15.752Z,541.00
2023-04-27T13:15:15.388Z,544.00
2023-04-27T13:16:15.429Z,546.00
2023-04-27T13:17:15.308Z,543.00
2023-04-27T13:18:15.244Z,549.00
2023-04-27T13:19:15.154Z,546.00
2023-04-27T13:20:15.085Z,546.00
2023-04-27T13:21:15.029Z,554.00
2023-04-27T13:22:14.975Z,552.00
2023-04-27T13:23:14.911Z,552.00
2023-04-27T13:24:15.021Z,554.00
2023-04-27T13:25:14.763Z,551.00
2023-04-27T13:26:14.716Z,557.00
2023-04-27T13:27:14.658Z,564.00
2023-04-27T13:28:14.591Z,556.00
2023-04-27T13:29:14.524Z,558.00
2023-04-27T13:30:14.452Z,555.00
2023-04-27T13:31:14.440Z,561.00
2023-04-27T13:32:14.320Z,560.00
2023-04-27T13:33:22.658Z,561.00
2023-04-27T13:34:15.406Z,562.00
2023-04-27T13:35:14.036Z,562.00
2023-04-27T13:36:13.931Z,562.00
2023-04-27T13:37:13.872Z,563.00
2023-04-27T13:38:13.741Z,566.00
2023-04-27T13:39:13.598Z,571.00
2023-04-27T13:40:13.517Z,562.00
2023-04-27T13:41:13.389Z,566.00
2023-04-27T13:42:13.294Z,573.00
2023-04-27T13:43:13.200Z,572.00
2023-04-27T13:44:13.363Z,571.00
2023-04-27T13:45:12.978Z,568.00
2023-04-27T13:46:12.870Z,572.00
2023-04-27T13:47:12.789Z,568.00
2023-04-27T13:48:12.675Z,567.00
2023-04-27T13:49:12.536Z,573.00
2023-04-27T13:50:12.455Z,566.00
2023-04-27T13:51:12.378Z,571.00
2023-04-27T13:52:12.322Z,568.00
2023-04-27T13:53:12.238Z,565.00
2023-04-27T13:54:12.393Z,569.00
2023-04-27T13:55:12.102Z,569.00
2023-04-27T13:56:12.014Z,562.00
2023-04-27T13:57:11.959Z,571.00
2023-04-27T13:58:11.867Z,567.00
2023-04-27T13:59:11.968Z,569.00
2023-04-27T14:00:11.803Z,571.00
2023-04-27T14:01:11.744Z,570.00
2023-04-27T14:02:11.590Z,571.00
2023-04-27T14:03:11.556Z,572.00
2023-04-27T14:04:11.604Z,573.00
2023-04-27T14:05:11.245Z,569.00
2023-04-27T14:06:11.111Z,567.00
2023-04-27T14:07:11.016Z,565.00
2023-04-27T14:08:10.896Z,572.00
2023-04-27T14:09:10.781Z,571.00
2023-04-27T14:10:10.690Z,572.00
2023-04-27T14:11:10.596Z,569.00
2023-04-27T14:12:10.460Z,574.00
2023-04-27T14:13:10.396Z,568.00
2023-04-27T14:14:10.206Z,567.00
2023-04-27T14:15:10.106Z,569.00
2023-04-27T14:16:10.007Z,563.00
2023-04-27T14:17:09.932Z,570.00
2023-04-27T14:18:09.851Z,563.00
2023-04-27T14:19:09.645Z,562.00
2023-04-27T14:20:09.559Z,561.00
2023-04-27T14:21:09.430Z,563.00
2023-04-27T14:22:09.358Z,562.00
2023-04-27T14:23:09.223Z,564.00
2023-04-27T14:24:09.143Z,562.00
2023-04-27T14:25:09.071Z,563.00
2023-04-27T14:26:08.991Z,562.00
2023-04-27T14:27:08.952Z,559.00
2023-04-27T14:28:08.884Z,567.00
2023-04-27T14:29:08.807Z,565.00
2023-04-27T14:30:08.716Z,557.00
2023-04-27T14:31:08.639Z,557.00
2023-04-27T14:32:08.651Z,556.00
2023-04-27T14:33:08.545Z,558.00
2023-04-27T14:34:08.455Z,558.00
2023-04-27T14:35:08.388Z,561.00
2023-04-27T14:36:08.309Z,558.00
2023-04-27T14:37:08.234Z,558.00
2023-04-27T14:38:08.171Z,558.00
2023-04-27T14:39:08.092Z,557.00
2023-04-27T14:40:08.104Z,564.00
2023-04-27T14:41:07.919Z,562.00
2023-04-27T14:42:07.799Z,564.00
2023-04-27T14:43:07.698Z,560.00
2023-04-27T14:44:07.568Z,560.00
2023-04-27T14:45:07.490Z,555.00
2023-04-27T14:46:19.900Z,557.00
2023-04-27T14:47:08.238Z,558.00
2023-04-27T14:48:07.146Z,558.00
2023-04-27T14:49:07.008Z,558.00
2023-04-27T14:50:06.917Z,555.00
2023-04-27T14:51:06.785Z,554.00
2023-04-27T14:52:06.662Z,554.00
2023-04-27T14:53:06.567Z,555.00
2023-04-27T14:54:06.443Z,560.00
2023-04-27T14:55:06.336Z,557.00
2023-04-27T14:56:06.198Z,552.00
2023-04-27T14:57:06.097Z,558.00
2023-04-27T14:58:05.991Z,547.00
2023-04-27T14:59:05.891Z,558.00
2023-04-27T15:00:05.835Z,549.00
2023-04-27T15:01:05.804Z,553.00
2023-04-27T15:02:05.691Z,550.00
2023-04-27T15:03:05.765Z,555.00
2023-04-27T15:04:05.759Z,548.00
2023-04-27T15:05:05.741Z,553.00
2023-04-27T15:06:05.450Z,546.00
2023-04-27T15:07:05.390Z,548.00
2023-04-27T15:08:05.343Z,548.00
2023-04-27T15:09:05.274Z,547.00
2023-04-27T15:10:05.244Z,552.00
2023-04-27T15:11:05.149Z,550.00
2023-04-27T15:12:05.079Z,545.00
2023-04-27T15:13:05.046Z,549.00
2023-04-27T15:14:04.960Z,545.00
2023-04-27T15:15:05.000Z,547.00
2023-04-27T15:16:05.047Z,547.00
2023-04-27T15:17:04.800Z,548.00
2023-04-27T15:18:04.842Z,539.00
2023-04-27T15:19:04.697Z,544.00
2023-04-27T15:20:04.633Z,542.00
2023-04-27T15:21:04.571Z,547.00
2023-04-27T15:22:04.515Z,539.00
2023-04-27T15:23:04.461Z,543.00
2023-04-27T15:24:04.387Z,541.00
2023-04-27T15:25:04.338Z,542.00
2023-04-27T15:26:04.295Z,544.00
2023-04-27T15:27:04.203Z,542.00
2023-04-27T15:28:04.152Z,542.00
2023-04-27T15:29:04.084Z,544.00
2023-04-27T15:30:04.088Z,540.00
2023-04-27T15:31:04.006Z,539.00
2023-04-27T15:32:03.902Z,540.00
2023-04-27T15:33:03.958Z,534.00
2023-04-27T15:34:03.784Z,544.00
2023-04-27T15:35:03.733Z,543.00
2023-04-27T15:36:03.669Z,539.00
2023-04-27T15:37:03.650Z,539.00
2023-04-27T15:38:03.553Z,534.00
2023-04-27T15:39:03.524Z,532.00
2023-04-27T15:40:03.426Z,543.00
2023-04-27T15:41:03.397Z,532.00
2023-04-27T15:42:03.354Z,539.00
2023-04-27T15:43:03.278Z,537.00
2023-04-27T15:44:03.206Z,536.00
2023-04-27T15:45:03.157Z,542.00
2023-04-27T15:46:03.097Z,535.00
2023-04-27T15:47:03.104Z,532.00
2023-04-27T15:48:03.016Z,537.00
2023-04-27T15:49:02.951Z,539.00
2023-04-27T15:50:02.886Z,536.00
2023-04-27T15:51:02.900Z,532.00
2023-04-27T15:52:02.779Z,531.00
2023-04-27T15:53:02.712Z,536.00
2023-04-27T15:54:02.664Z,533.00
2023-04-27T15:55:02.615Z,533.00
2023-04-27T15:56:02.560Z,537.00
2023-04-27T15:57:02.504Z,529.00
2023-04-27T15:58:02.442Z,538.00
2023-04-27T15:59:02.414Z,535.00
2023-04-27T16:00:02.346Z,533.00
2023-04-27T16:01:02.331Z,535.00
2023-04-27T16:02:02.313Z,533.00
2023-04-27T16:03:02.484Z,530.00
2023-04-27T16:04:02.197Z,533.00
2023-04-27T16:05:02.078Z,534.00
2023-04-27T16:06:02.036Z,530.00
2023-04-27T16:07:01.984Z,533.00
2023-04-27T16:08:01.916Z,534.00
2023-04-27T16:09:01.873Z,532.00
2023-04-27T16:10:01.946Z,533.00
2023-04-27T16:11:01.780Z,530.00
2023-04-27T16:12:01.721Z,526.00
2023-04-27T16:13:01.662Z,523.00
2023-04-27T16:14:01.610Z,528.00
2023-04-27T16:15:01.593Z,528.00
2023-04-27T16:16:01.550Z,524.00
2023-04-27T16:17:01.480Z,527.00
2023-04-27T16:18:01.467Z,533.00
2023-04-27T16:19:01.387Z,532.00
2023-04-27T16:20:01.328Z,522.00
2023-04-27T16:21:01.309Z,524.00
2023-04-27T16:22:01.231Z,535.00
2023-04-27T16:23:01.194Z,531.00
2023-04-27T16:24:01.134Z,529.00
2023-04-27T16:25:01.070Z,525.00
2023-04-27T16:26:01.034Z,526.00
2023-04-27T16:27:00.984Z,527.00
2023-04-27T16:28:00.920Z,531.00
2023-04-27T16:29:00.874Z,533.00
2023-04-27T16:30:00.835Z,530.00
2023-04-27T16:31:00.787Z,528.00
2023-04-27T16:32:00.826Z,530.00
2023-04-27T16:33:00.808Z,528.00
2023-04-27T16:34:00.625Z,531.00
2023-04-27T16:35:00.593Z,524.00
2023-04-27T16:36:00.552Z,522.00
2023-04-27T16:37:00.501Z,528.00
2023-04-27T16:38:00.480Z,527.00
2023-04-27T16:39:00.411Z,526.00
2023-04-27T16:40:00.395Z,526.00
2023-04-27T16:41:00.327Z,533.00
2023-04-27T16:42:00.272Z,525.00
2023-04-27T16:43:00.239Z,527.00
2023-04-27T16:44:00.216Z,524.00
2023-04-27T16:45:00.370Z,530.00
2023-04-27T16:46:00.109Z,527.00
2023-04-27T16:47:00.038Z,529.00
2023-04-27T16:48:00.037Z,529.00
2023-04-27T16:48:59.946Z,525.00
2023-04-27T16:49:59.905Z,528.00
2023-04-27T16:50:59.874Z,525.00
2023-04-27T16:51:59.818Z,534.00
2023-04-27T16:52:59.781Z,532.00
2023-04-27T16:53:59.731Z,531.00
2023-04-27T16:54:59.716Z,528.00
2023-04-27T16:55:59.642Z,526.00
2023-04-27T16:56:59.613Z,532.00
2023-04-27T16:57:59.554Z,529.00
2023-04-27T16:58:59.538Z,530.00
2023-04-27T16:59:59.480Z,530.00
2023-04-27T17:00:59.493Z,529.00
2023-04-27T17:02:06.352Z,531.00
2023-04-27T17:03:00.351Z,531.00
2023-04-27T17:03:59.623Z,532.00
2023-04-27T17:04:59.093Z,533.00
2023-04-27T17:05:58.951Z,534.00
2023-04-27T17:06:58.851Z,539.00
2023-04-27T17:07:58.782Z,538.00
2023-04-27T17:08:58.674Z,537.00
2023-04-27T17:09:58.542Z,538.00
2023-04-27T17:10:58.485Z,539.00
2023-04-27T17:11:58.442Z,534.00
2023-04-27T17:12:58.424Z,538.00
2023-04-27T17:13:58.373Z,544.00
2023-04-27T17:14:58.326Z,539.00
2023-04-27T17:15:58.303Z,543.00
2023-04-27T17:16:58.239Z,538.00
2023-04-27T17:17:58.266Z,544.00
2023-04-27T17:18:58.187Z,544.00
2023-04-27T17:19:58.118Z,547.00
2023-04-27T17:20:58.087Z,547.00
2023-04-27T17:21:58.068Z,546.00
2023-04-27T17:22:58.014Z,549.00
2023-04-27T17:23:58.000Z,551.00
2023-04-27T17:24:57.936Z,547.00
2023-04-27T17:25:57.883Z,549.00
2023-04-27T17:26:57.851Z,549.00
2023-04-27T17:27:59.496Z,555.00
2023-04-27T17:28:57.729Z,561.00
2023-04-27T17:30:57.572Z,562.00
2023-04-27T17:31:57.409Z,562.00
2023-04-27T17:32:57.333Z,560.00
2023-04-27T17:33:57.181Z,563.00
2023-04-27T17:34:57.076Z,567.00
2023-04-27T17:35:56.969Z,562.00
2023-04-27T17:36:56.858Z,568.00
2023-04-27T17:37:56.750Z,564.00
2023-04-27T17:38:56.644Z,565.00
2023-04-27T17:39:56.556Z,569.00
2023-04-27T17:40:56.434Z,568.00
2023-04-27T17:41:56.321Z,572.00
2023-04-27T17:42:56.217Z,571.00
2023-04-27T17:43:56.115Z,574.00
2023-04-27T17:44:56.006Z,575.00
2023-04-27T17:45:55.892Z,575.00
2023-04-27T17:46:55.954Z,578.00
2023-04-27T17:47:55.720Z,581.00
2023-04-27T17:48:55.574Z,588.00
2023-04-27T17:49:55.469Z,583.00
2023-04-27T17:50:55.342Z,583.00
2023-04-27T17:51:55.251Z,583.00
2023-04-27T17:52:55.154Z,585.00
2023-04-27T17:53:55.031Z,586.00
2023-04-27T17:54:54.922Z,586.00
2023-04-27T17:55:54.821Z,594.00
2023-04-27T17:56:54.722Z,595.00
2023-04-27T17:57:54.608Z,592.00
2023-04-27T17:58:54.495Z,597.00
2023-04-27T17:59:54.395Z,597.00
2023-04-27T18:00:54.344Z,602.00
2023-04-27T18:01:54.226Z,602.00
2023-04-27T18:02:54.250Z,604.00
2023-04-27T18:03:54.067Z,604.00
2023-04-27T18:04:53.875Z,605.00
2023-04-27T18:05:53.745Z,611.00
2023-04-27T18:06:53.630Z,610.00
2023-04-27T18:07:53.529Z,613.00
2023-04-27T18:08:53.451Z,612.00
2023-04-27T18:09:53.320Z,620.00
2023-04-27T18:10:53.204Z,623.00
2023-04-27T18:11:53.096Z,616.00
2023-04-27T18:12:52.982Z,617.00
2023-04-27T18:13:52.902Z,618.00
2023-04-27T18:14:52.759Z,620.00
2023-04-27T18:15:52.657Z,623.00
2023-04-27T18:16:52.629Z,628.00
2023-04-27T18:17:52.489Z,626.00
2023-04-27T18:18:52.322Z,628.00
2023-04-27T18:20:04.359Z,628.00
2023-04-27T18:20:53.099Z,629.00
2023-04-27T18:21:51.996Z,629.00
2023-04-27T18:22:51.868Z,632.00
2023-04-27T18:23:51.776Z,637.00
2023-04-27T18:24:51.650Z,642.00
2023-04-27T18:25:51.551Z,653.00
2023-04-27T18:26:51.449Z,654.00
2023-04-27T18:27:51.334Z,652.00
2023-04-27T18:28:51.225Z,647.00
2023-04-27T18:29:51.130Z,649.00
2023-04-27T18:30:51.028Z,657.00
2023-04-27T18:31:50.989Z,654.00
2023-04-27T18:32:50.846Z,657.00
2023-04-27T18:33:50.679Z,662.00
2023-04-27T18:34:50.568Z,658.00
2023-04-27T18:35:50.465Z,656.00
2023-04-27T18:36:52.023Z,660.00
2023-04-27T18:37:50.229Z,660.00
2023-04-27T18:38:50.130Z,660.00
2023-04-27T18:39:52.138Z,664.00
2023-04-27T18:40:49.922Z,667.00
2023-04-27T18:41:49.810Z,665.00
2023-04-27T18:42:49.695Z,674.00
2023-04-27T18:43:49.601Z,677.00
2023-04-27T18:44:49.485Z,675.00
2023-04-27T18:45:49.390Z,685.00
2023-04-27T18:46:49.260Z,666.00
2023-04-27T18:47:49.209Z,687.00
2023-04-27T18:48:49.054Z,683.00
2023-04-27T18:49:48.941Z,686.00
2023-04-27T18:50:48.820Z,689.00
2023-04-27T18:51:48.736Z,690.00
2023-04-27T18:52:48.636Z,683.00
2023-04-27T18:53:48.524Z,696.00
2023-04-27T18:54:48.401Z,694.00
2023-04-27T18:55:48.296Z,698.00
2023-04-27T18:56:48.191Z,690.00
2023-04-27T18:57:48.108Z,696.00
2023-04-27T18:58:47.990Z,707.00
2023-04-27T18:59:47.872Z,696.00
2023-04-27T19:00:47.766Z,713.00
2023-04-27T19:01:47.794Z,701.00
2023-04-27T19:02:47.670Z,697.00
2023-04-27T19:03:47.654Z,712.00
2023-04-27T19:04:53.255Z,714.00
2023-04-27T19:05:48.255Z,715.00
2023-04-27T19:06:47.137Z,716.00
2023-04-27T19:07:47.013Z,716.00
2023-04-27T19:08:46.906Z,719.00
2023-04-27T19:09:46.796Z,731.00
2023-04-27T19:10:46.693Z,733.00
2023-04-27T19:11:49.397Z,720.00
2023-04-27T19:12:46.474Z,717.00
2023-04-27T19:13:46.366Z,712.00
2023-04-27T19:14:46.236Z,721.00
2023-04-27T19:15:46.144Z,711.00
2023-04-27T19:16:46.081Z,713.00
2023-04-27T19:17:47.263Z,715.00
2023-04-27T19:18:45.859Z,713.00
2023-04-27T19:19:45.689Z,718.00
2023-04-27T19:20:45.590Z,725.00
2023-04-27T19:21:45.466Z,735.00
2023-04-27T19:22:45.358Z,751.00
2023-04-27T19:23:45.262Z,737.00
2023-04-27T19:24:45.134Z,734.00
2023-04-27T19:25:45.037Z,741.00
2023-04-27T19:26:44.913Z,736.00
2023-04-27T19:27:44.803Z,746.00
2023-04-27T19:28:44.688Z,747.00
2023-04-27T19:29:44.579Z,737.00
2023-04-27T19:30:44.492Z,738.00
2023-04-27T19:31:44.507Z,738.00
2023-04-27T19:32:44.273Z,740.00
2023-04-27T19:34:44.026Z,745.00
2023-04-27T19:35:43.940Z,743.00
2023-04-27T19:36:43.803Z,741.00
2023-04-27T19:37:43.703Z,737.00
2023-04-27T19:38:43.605Z,728.00
2023-04-27T19:39:43.489Z,746.00
2023-04-27T19:40:43.354Z,730.00
2023-04-27T19:41:43.259Z,732.00
2023-04-27T19:42:43.152Z,735.00
2023-04-27T19:43:43.037Z,743.00
2023-04-27T19:44:42.919Z,733.00
2023-04-27T19:45:42.801Z,729.00
2023-04-27T19:46:42.771Z,729.00
2023-04-27T19:47:42.596Z,735.00
2023-04-27T19:48:42.629Z,729.00
2023-04-27T19:49:42.364Z,733.00
2023-04-27T19:50:42.269Z,738.00
2023-04-27T19:51:42.142Z,732.00
2023-04-27T19:52:42.047Z,730.00
2023-04-27T19:53:41.972Z,721.00
2023-04-27T19:54:41.816Z,727.00
2023-04-27T19:55:41.709Z,722.00
2023-04-27T19:56:41.613Z,725.00
2023-04-27T19:57:41.496Z,726.00
2023-04-27T19:58:41.387Z,712.00
2023-04-27T19:59:41.264Z,718.00
2023-04-27T20:00:41.166Z,728.00
2023-04-27T20:01:41.122Z,728.00
2023-04-27T20:02:41.222Z,722.00
2023-04-27T20:03:40.992Z,720.00
2023-04-27T20:04:40.933Z,721.00
2023-04-27T20:05:40.787Z,722.00
2023-04-27T20:06:40.506Z,722.00
2023-04-27T20:07:40.396Z,729.00
2023-04-27T20:08:40.318Z,721.00
2023-04-27T20:09:40.185Z,720.00
2023-04-27T20:10:40.074Z,715.00
2023-04-27T20:11:39.973Z,725.00
2023-04-27T20:12:54.260Z,722.00
2023-04-27T20:13:40.773Z,723.00
2023-04-27T20:14:39.654Z,724.00
2023-04-27T20:15:39.556Z,717.00
2023-04-27T20:16:39.546Z,725.00
2023-04-27T20:17:39.368Z,716.00
2023-04-27T20:18:39.242Z,697.00
2023-04-27T20:19:39.130Z,698.00
2023-04-27T20:20:39.037Z,701.00
2023-04-27T20:21:38.913Z,701.00
2023-04-27T20:22:38.817Z,699.00
2023-04-27T20:23:38.716Z,719.00
2023-04-27T20:24:38.606Z,714.00
2023-04-27T20:25:38.510Z,700.00
2023-04-27T20:26:38.389Z,703.00
2023-04-27T20:27:38.309Z,697.00
2023-04-27T20:28:38.247Z,703.00
2023-04-27T20:29:38.100Z,697.00
2023-04-27T20:30:37.957Z,681.00
2023-04-27T20:31:37.896Z,699.00
2023-04-27T20:32:37.776Z,695.00
2023-04-27T20:33:37.672Z,701.00
2023-04-27T20:34:37.526Z,687.00
2023-04-27T20:35:37.409Z,683.00
2023-04-27T20:36:37.304Z,685.00
2023-04-27T20:37:37.196Z,690.00
2023-04-27T20:38:37.111Z,676.00
2023-04-27T20:39:37.019Z,677.00
2023-04-27T20:40:36.887Z,678.00
2023-04-27T20:41:36.768Z,671.00
2023-04-27T20:42:36.661Z,680.00
2023-04-27T20:43:36.555Z,676.00
2023-04-27T20:44:36.442Z,669.00
2023-04-27T20:45:36.380Z,673.00
2023-04-27T20:46:36.209Z,665.00
2023-04-27T20:47:36.203Z,668.00
2023-04-27T20:48:35.983Z,666.00
2023-04-27T20:49:35.970Z,666.00
2023-04-27T20:50:35.779Z,664.00
2023-04-27T20:51:35.660Z,660.00
2023-04-27T20:52:35.561Z,667.00
2023-04-27T20:53:35.449Z,660.00
2023-04-27T20:54:35.348Z,662.00
2023-04-27T20:55:35.274Z,662.00
2023-04-27T20:56:35.188Z,658.00
2023-04-27T20:57:35.119Z,660.00
2023-04-27T20:58:35.032Z,658.00
2023-04-27T20:59:34.980Z,661.00
2023-04-27T21:00:34.897Z,658.00
2023-04-27T21:01:34.844Z,656.00
2023-04-27T21:02:34.774Z,654.00
2023-04-27T21:03:34.862Z,654.00
2023-04-27T21:04:34.750Z,659.00
2023-04-27T21:05:34.547Z,656.00
2023-04-27T21:06:34.467Z,657.00
2023-04-27T21:07:34.409Z,653.00
2023-04-27T21:08:34.337Z,651.00
2023-04-27T21:09:34.296Z,655.00
2023-04-27T21:10:34.199Z,651.00
2023-04-27T21:11:34.123Z,651.00
2023-04-27T21:12:34.087Z,647.00
2023-04-27T21:13:33.995Z,651.00
2023-04-27T21:14:33.933Z,650.00
2023-04-27T21:15:33.872Z,648.00
2023-04-27T21:16:33.863Z,645.00
2023-04-27T21:17:33.739Z,646.00
2023-04-27T21:18:33.681Z,642.00
2023-04-27T21:19:33.593Z,646.00
2023-04-27T21:20:33.524Z,643.00
2023-04-27T21:21:33.457Z,640.00
2023-04-27T21:22:33.378Z,637.00
2023-04-27T21:23:33.312Z,645.00
2023-04-27T21:24:33.242Z,641.00
2023-04-27T21:25:33.172Z,638.00
2023-04-27T21:26:33.096Z,640.00
2023-04-27T21:27:33.004Z,638.00
2023-04-27T21:28:32.890Z,638.00
2023-04-27T21:29:32.789Z,638.00
2023-04-27T21:30:32.665Z,639.00
2023-04-27T21:31:32.643Z,634.00
2023-04-27T21:32:32.475Z,636.00
2023-04-27T21:33:32.344Z,633.00
2023-04-27T21:34:32.264Z,631.00
2023-04-27T21:35:32.128Z,632.00
2023-04-27T21:36:31.992Z,634.00
2023-04-27T21:37:31.898Z,629.00
2023-04-27T21:38:31.764Z,625.00
2023-04-27T21:39:31.664Z,624.00
2023-04-27T21:40:31.551Z,622.00
2023-04-27T21:41:31.441Z,626.00
2023-04-27T21:42:31.324Z,626.00
2023-04-27T21:43:31.252Z,623.00
2023-04-27T21:44:31.175Z,621.00
2023-04-27T21:45:31.118Z,621.00
2023-04-27T21:46:31.078Z,622.00
2023-04-27T21:47:30.996Z,620.00
2023-04-27T21:48:30.893Z,622.00
2023-04-27T21:49:30.808Z,615.00
2023-04-27T21:50:30.750Z,609.00
2023-04-27T21:51:30.668Z,614.00
2023-04-27T21:52:30.585Z,613.00
2023-04-27T21:53:30.577Z,614.00
2023-04-27T21:54:30.444Z,614.00
2023-04-27T21:55:30.372Z,613.00
2023-04-27T21:56:30.306Z,613.00
2023-04-27T21:57:30.243Z,607.00
2023-04-27T21:58:30.158Z,609.00
2023-04-27T21:59:30.052Z,609.00
2023-04-27T22:00:29.960Z,610.00
2023-04-27T22:01:29.859Z,609.00
2023-04-27T22:02:29.918Z,609.00
2023-04-27T22:03:29.846Z,610.00
2023-04-27T22:04:29.822Z,609.00
2023-04-27T22:05:29.408Z,612.00
2023-04-27T22:06:29.287Z,605.00
2023-04-27T22:07:29.180Z,604.00
2023-04-27T22:08:29.101Z,603.00
2023-04-27T22:09:28.972Z,602.00
2023-04-27T22:10:28.838Z,602.00
2023-04-27T22:11:28.745Z,601.00
2023-04-27T22:12:28.628Z,600.00
2023-04-27T22:13:28.520Z,598.00
2023-04-27T22:14:28.451Z,598.00
2023-04-27T22:15:28.357Z,599.00
2023-04-27T22:16:28.297Z,597.00
2023-04-27T22:17:28.346Z,597.00
2023-04-27T22:18:28.120Z,593.00
2023-04-27T22:19:28.066Z,593.00
2023-04-27T22:20:27.990Z,589.00
2023-04-27T22:21:27.903Z,591.00
2023-04-27T22:22:27.838Z,589.00
2023-04-27T22:23:27.758Z,589.00
2023-04-27T22:24:27.664Z,589.00
2023-04-27T22:25:27.551Z,589.00
2023-04-27T22:26:27.442Z,588.00
2023-04-27T22:27:35.350Z,586.00
2023-04-27T22:28:28.222Z,589.00
2023-04-27T22:29:27.116Z,585.00
2023-04-27T22:30:27.012Z,585.00
2023-04-27T22:31:26.928Z,585.00
2023-04-27T22:32:26.798Z,584.00
2023-04-27T22:33:26.693Z,584.00
2023-04-27T22:34:26.578Z,581.00
2023-04-27T22:35:27.874Z,582.00
2023-04-27T22:36:26.360Z,581.00
2023-04-27T22:37:28.032Z,576.00
2023-04-27T22:38:26.135Z,576.00
2023-04-27T22:39:26.015Z,574.00
2023-04-27T22:40:25.932Z,576.00
2023-04-27T22:41:25.792Z,575.00
2023-04-27T22:42:25.690Z,575.00
2023-04-27T22:43:25.568Z,577.00
2023-04-27T22:44:25.469Z,577.00
2023-04-27T22:45:25.348Z,576.00
2023-04-27T22:46:25.249Z,575.00
2023-04-27T22:47:25.147Z,575.00
2023-04-27T22:48:25.042Z,575.00
2023-04-27T22:49:24.918Z,575.00
2023-04-27T22:50:24.795Z,569.00
2023-04-27T22:51:24.695Z,572.00
2023-04-27T22:52:24.581Z,568.00
2023-04-27T22:53:24.479Z,562.00
2023-04-27T22:54:24.340Z,569.00
2023-04-27T22:55:24.262Z,561.00
2023-04-27T22:56:24.141Z,562.00
2023-04-27T22:57:24.024Z,563.00
2023-04-27T22:58:23.959Z,560.00
2023-04-27T22:59:23.886Z,560.00
2023-04-27T23:00:23.834Z,556.00
2023-04-27T23:01:23.779Z,561.00
2023-04-27T23:02:23.840Z,558.00
2023-04-27T23:03:23.880Z,558.00
2023-04-27T23:04:23.941Z,560.00
2023-04-27T23:05:23.523Z,558.00
2023-04-27T23:06:23.448Z,555.00
2023-04-27T23:07:23.409Z,554.00
2023-04-27T23:08:23.345Z,551.00
2023-04-27T23:09:23.284Z,549.00
2023-04-27T23:10:23.224Z,549.00
2023-04-27T23:11:23.137Z,547.00
2023-04-27T23:12:23.082Z,544.00
2023-04-27T23:13:23.030Z,551.00
2023-04-27T23:14:22.955Z,545.00
2023-04-27T23:15:22.911Z,549.00
2023-04-27T23:16:22.909Z,547.00
2023-04-27T23:17:22.818Z,548.00
2023-04-27T23:18:22.723Z,546.00
2023-04-27T23:19:22.679Z,550.00
2023-04-27T23:21:22.438Z,550.00
2023-04-27T23:22:22.324Z,544.00
2023-04-27T23:23:22.223Z,550.00
2023-04-27T23:24:22.114Z,538.00
2023-04-27T23:25:21.998Z,546.00
2023-04-27T23:26:21.868Z,539.00
2023-04-27T23:27:21.764Z,541.00
2023-04-27T23:28:21.646Z,535.00
2023-04-27T23:29:21.551Z,537.00
2023-04-27T23:30:21.445Z,538.00
2023-04-27T23:31:21.331Z,534.00
2023-04-27T23:32:21.232Z,535.00
2023-04-27T23:33:21.075Z,534.00
2023-04-27T23:34:20.974Z,532.00
2023-04-27T23:35:20.913Z,532.00
2023-04-27T23:36:20.741Z,534.00
2023-04-27T23:37:20.643Z,532.00
2023-04-27T23:38:20.525Z,529.00
2023-04-27T23:39:20.396Z,528.00
2023-04-27T23:40:20.290Z,526.00
2023-04-27T23:41:20.192Z,523.00
2023-04-27T23:42:20.057Z,524.00
2023-04-27T23:43:19.938Z,531.00
2023-04-27T23:44:19.833Z,525.00
2023-04-27T23:45:19.710Z,522.00
2023-04-27T23:46:19.613Z,526.00
2023-04-27T23:47:19.476Z,529.00
2023-04-27T23:48:19.367Z,522.00
2023-04-27T23:49:19.262Z,521.00
2023-04-27T23:50:19.127Z,521.00
2023-04-27T23:51:19.020Z,519.00
2023-04-27T23:52:18.934Z,518.00
2023-04-27T23:53:18.813Z,519.00
2023-04-27T23:54:18.784Z,521.00
2023-04-27T23:55:18.587Z,519.00